createdAt,value
2023-02-02T00:01:16.226Z,98486.91
2023-02-02T00:04:05.074Z,98471.56
2023-02-02T00:06:53.566Z,98480.56
2023-02-02T00:09:41.040Z,98465.75
2023-02-02T00:12:28.959Z,98471.25
2023-02-02T00:15:17.987Z,98453.41
2023-02-02T00:18:06.673Z,98461.63
2023-02-02T00:20:54.257Z,98468.59
2023-02-02T00:23:41.672Z,98455.22
2023-02-02T00:26:29.369Z,98460.25
2023-02-02T00:29:21.157Z,98464.16
2023-02-02T00:32:10.025Z,98465.25
2023-02-02T00:34:57.814Z,98465.00
2023-02-02T00:37:45.305Z,98467.97
2023-02-02T00:40:32.858Z,98483.53
2023-02-02T00:43:20.387Z,98496.81
2023-02-02T00:46:10.513Z,98489.78
2023-02-02T00:48:59.224Z,98521.47
2023-02-02T00:51:46.476Z,98520.00
2023-02-02T00:54:34.059Z,98528.97
2023-02-02T00:57:21.604Z,98528.91
2023-02-02T01:00:13.217Z,98536.28
2023-02-02T01:03:04.465Z,98528.25
2023-02-02T01:05:53.336Z,98545.06
2023-02-02T01:08:40.827Z,98521.59
2023-02-02T01:11:28.432Z,98566.38
2023-02-02T01:14:16.123Z,98556.81
2023-02-02T01:17:05.551Z,98518.34
2023-02-02T01:19:52.990Z,98556.75
2023-02-02T01:22:41.897Z,98558.75
2023-02-02T01:25:30.496Z,98580.09
2023-02-02T01:28:17.903Z,98567.16
2023-02-02T01:31:09.620Z,98575.44
2023-02-02T01:33:57.449Z,98569.06
2023-02-02T01:36:45.014Z,98569.47
2023-02-02T01:39:34.383Z,98576.84
2023-02-02T01:42:24.702Z,98582.50
2023-02-02T01:45:23.727Z,98582.94
2023-02-02T01:48:11.681Z,98588.78
2023-02-02T01:51:06.169Z,98605.16
2023-02-02T01:53:57.235Z,98607.28
2023-02-02T01:56:54.616Z,98621.22
2023-02-02T01:59:44.591Z,98608.44
2023-02-02T02:02:33.633Z,98604.50
2023-02-02T02:05:28.565Z,98604.91
2023-02-02T02:08:22.912Z,98606.81
2023-02-02T02:11:10.604Z,98597.44
2023-02-02T02:14:21.370Z,98589.03
2023-02-02T02:17:50.346Z,98579.69
2023-02-02T02:21:44.617Z,98591.44
2023-02-02T02:25:43.299Z,98590.13
2023-02-02T02:29:13.562Z,98593.50
2023-02-02T02:32:27.337Z,98601.56
2023-02-02T02:35:29.377Z,98612.34
2023-02-02T02:38:28.099Z,98609.19
2023-02-02T02:41:23.605Z,98600.56
2023-02-02T02:44:15.725Z,98609.59
2023-02-02T02:47:05.532Z,98615.03
2023-02-02T02:49:54.454Z,98611.66
2023-02-02T02:52:42.685Z,98606.59
2023-02-02T02:55:47.320Z,98613.75
2023-02-02T02:58:45.081Z,98613.84
2023-02-02T03:01:42.484Z,98617.56
2023-02-02T03:04:45.843Z,98614.31
2023-02-02T03:07:44.421Z,98625.63
2023-02-02T03:10:33.945Z,98630.25
2023-02-02T03:13:21.843Z,98630.44
2023-02-02T03:16:11.162Z,98630.63
2023-02-02T03:18:59.069Z,98629.13
2023-02-02T03:21:46.863Z,98638.09
2023-02-02T03:24:35.798Z,98641.50
2023-02-02T03:27:23.618Z,98628.56
2023-02-02T03:30:14.720Z,98623.31
2023-02-02T03:33:02.639Z,98622.66
2023-02-02T03:35:50.015Z,98628.00
2023-02-02T03:38:37.354Z,98639.34
2023-02-02T03:41:29.346Z,98628.22
2023-02-02T03:44:16.735Z,98632.69
2023-02-02T03:47:04.149Z,98629.31
2023-02-02T03:49:51.504Z,98643.38
2023-02-02T03:52:39.564Z,98637.38
2023-02-02T03:55:27.493Z,98635.03
2023-02-02T03:58:17.457Z,98618.50
2023-02-02T04:01:06.465Z,98621.19
2023-02-02T04:03:54.237Z,98610.91
2023-02-02T04:06:41.818Z,98601.25
2023-02-02T04:09:31.443Z,98607.44
2023-02-02T04:12:19.221Z,98598.75
2023-02-02T04:15:10.391Z,98602.09
2023-02-02T04:17:58.245Z,98608.38
2023-02-02T04:20:46.344Z,98607.72
2023-02-02T04:23:34.538Z,98617.38
2023-02-02T04:26:21.993Z,98627.84
2023-02-02T04:29:10.246Z,98626.34
2023-02-02T04:31:59.241Z,98638.69
2023-02-02T04:34:47.049Z,98651.88
2023-02-02T04:37:34.775Z,98659.00
2023-02-02T04:40:22.089Z,98662.56
2023-02-02T04:43:10.365Z,98663.38
2023-02-02T04:45:58.597Z,98670.06
2023-02-02T04:48:50.348Z,98659.38
2023-02-02T04:51:38.229Z,98663.19
2023-02-02T04:54:25.860Z,98650.19
2023-02-02T04:57:15.726Z,98670.41
2023-02-02T05:00:03.786Z,98664.91
2023-02-02T05:02:51.591Z,98667.78
2023-02-02T05:05:40.989Z,98662.75
2023-02-02T05:08:28.853Z,98661.88
2023-02-02T05:11:23.556Z,98664.50
2023-02-02T05:14:12.270Z,98663.78
2023-02-02T05:16:59.855Z,98669.00
2023-02-02T05:19:47.516Z,98670.88
2023-02-02T05:22:36.428Z,98672.63
2023-02-02T05:25:24.372Z,98675.25
2023-02-02T05:28:12.809Z,98677.03
2023-02-02T05:31:00.553Z,98676.97
2023-02-02T05:33:47.843Z,98684.91
2023-02-02T05:36:35.329Z,98685.81
2023-02-02T05:39:24.505Z,98700.63
2023-02-02T05:42:12.359Z,98688.44
2023-02-02T05:44:59.666Z,98695.38
2023-02-02T05:47:47.134Z,98690.16
2023-02-02T05:50:34.648Z,98701.44
2023-02-02T05:53:22.523Z,98706.69
2023-02-02T05:56:11.293Z,98705.00
2023-02-02T05:59:00.041Z,98707.53
2023-02-02T06:01:48.018Z,98713.63
2023-02-02T06:04:35.663Z,98712.59
2023-02-02T06:07:23.070Z,98717.84
2023-02-02T06:10:11.871Z,98713.34
2023-02-02T06:13:00.728Z,98715.94
2023-02-02T06:15:48.578Z,98705.47
2023-02-02T06:18:37.419Z,98717.75
2023-02-02T06:21:25.376Z,98716.16
2023-02-02T06:24:13.163Z,98714.44
2023-02-02T06:27:00.619Z,98713.63
2023-02-02T06:29:49.318Z,98717.06
2023-02-02T06:32:36.993Z,98719.59
2023-02-02T06:35:24.882Z,98721.31
2023-02-02T06:38:14.954Z,98724.66
2023-02-02T06:41:03.145Z,98731.66
2023-02-02T06:43:51.837Z,98718.56
2023-02-02T06:46:40.665Z,98724.75
2023-02-02T06:49:30.071Z,98727.47
2023-02-02T06:52:17.486Z,98721.41
2023-02-02T06:55:05.453Z,98724.75
2023-02-02T06:57:59.097Z,98728.22
2023-02-02T07:00:46.746Z,98726.44
2023-02-02T07:03:36.498Z,98724.75
2023-02-02T07:06:26.577Z,98725.44
2023-02-02T07:09:14.423Z,98730.75
2023-02-02T07:12:02.158Z,98725.44
2023-02-02T07:14:51.313Z,98721.88
2023-02-02T07:17:38.831Z,98734.88
2023-02-02T07:20:28.064Z,98731.31
2023-02-02T07:23:15.816Z,98735.63
2023-02-02T07:26:05.198Z,98735.72
2023-02-02T07:28:53.532Z,98736.38
2023-02-02T07:31:41.791Z,98737.22
2023-02-02T07:34:29.369Z,98740.78
2023-02-02T07:37:18.552Z,98739.84
2023-02-02T07:40:07.736Z,98736.28
2023-02-02T07:42:55.468Z,98740.59
2023-02-02T07:45:43.175Z,98744.81
2023-02-02T07:48:31.240Z,98746.50
2023-02-02T07:51:19.630Z,98739.47
2023-02-02T07:54:09.426Z,98746.31
2023-02-02T07:56:57.573Z,98745.28
2023-02-02T07:59:45.454Z,98746.22
2023-02-02T08:02:32.935Z,98742.56
2023-02-02T08:05:22.734Z,98754.94
2023-02-02T08:08:10.470Z,98759.22
2023-02-02T08:10:59.318Z,98747.81
2023-02-02T08:13:50.570Z,98755.75
2023-02-02T08:16:38.434Z,98761.84
2023-02-02T08:19:25.971Z,98747.81
2023-02-02T08:22:13.402Z,98754.00
2023-02-02T08:25:01.232Z,98753.06
2023-02-02T08:27:54.739Z,98746.91
2023-02-02T08:30:42.235Z,98746.91
2023-02-02T08:33:29.593Z,98747.81
2023-02-02T08:36:20.387Z,98757.47
2023-02-02T08:39:12.413Z,98753.91
2023-02-02T08:42:00.010Z,98760.91
2023-02-02T08:46:13.248Z,98753.13
2023-02-02T08:48:10.710Z,98761.09
2023-02-02T08:51:00.325Z,98759.41
2023-02-02T08:53:48.520Z,98766.53
2023-02-02T08:56:36.178Z,98776.09
2023-02-02T08:59:23.830Z,98764.84
2023-02-02T09:02:13.824Z,98761.31
2023-02-02T09:05:01.238Z,98769.16
2023-02-02T09:07:49.304Z,98766.53
2023-02-02T09:10:37.913Z,98766.53
2023-02-02T09:13:25.743Z,98763.91
2023-02-02T09:16:16.500Z,98770.00
2023-02-02T09:19:05.701Z,98765.50
2023-02-02T09:21:53.413Z,98777.75
2023-02-02T09:24:40.943Z,98767.09
2023-02-02T09:27:31.597Z,98765.50
2023-02-02T09:30:19.824Z,98767.09
2023-02-02T09:33:07.388Z,98775.72
2023-02-02T09:35:56.210Z,98765.25
2023-02-02T09:38:45.334Z,98768.59
2023-02-02T09:42:15.889Z,98775.38
2023-02-02T09:45:27.095Z,98769.28
2023-02-02T09:48:30.140Z,98784.13
2023-02-02T09:51:24.826Z,98782.09
2023-02-02T09:54:20.729Z,98780.44
2023-02-02T09:57:18.885Z,98782.09
2023-02-02T10:00:25.560Z,98781.91
2023-02-02T10:03:21.417Z,98778.84
2023-02-02T10:06:27.780Z,98783.41
2023-02-02T10:09:31.329Z,98777.13
2023-02-02T10:12:34.209Z,98779.75
2023-02-02T10:15:37.640Z,98784.72
2023-02-02T10:18:38.145Z,98777.13
2023-02-02T10:21:38.839Z,98780.81
2023-02-02T10:24:30.599Z,98773.78
2023-02-02T10:27:29.384Z,98775.19
2023-02-02T10:30:25.566Z,98771.66
2023-02-02T10:33:28.734Z,98769.31
2023-02-02T10:36:31.347Z,98771.84
2023-02-02T10:39:34.599Z,98772.59
2023-02-02T10:42:40.872Z,98769.41
2023-02-02T10:45:28.693Z,98763.22
2023-02-02T10:48:20.162Z,98766.31
2023-02-02T10:51:18.869Z,98764.50
2023-02-02T10:54:30.233Z,98761.47
2023-02-02T10:57:35.113Z,98764.53
2023-02-02T11:00:30.703Z,98757.94
2023-02-02T11:03:23.077Z,98766.97
2023-02-02T11:06:31.522Z,98753.53
2023-02-02T11:09:24.975Z,98761.25
2023-02-02T11:12:23.969Z,98750.22
2023-02-02T11:15:27.978Z,98746.47
2023-02-02T11:18:28.726Z,98744.56
2023-02-02T11:21:27.897Z,98748.47
2023-02-02T11:24:25.699Z,98742.56
2023-02-02T11:27:18.482Z,98751.28
2023-02-02T11:30:29.002Z,98754.97
2023-02-02T11:33:30.212Z,98754.41
2023-02-02T11:36:22.370Z,98762.72
2023-02-02T11:39:21.097Z,98752.72
2023-02-02T11:42:19.469Z,98753.63
2023-02-02T11:45:16.206Z,98749.50
2023-02-02T11:48:09.151Z,98750.31
2023-02-02T11:51:00.871Z,98745.34
2023-02-02T11:53:50.814Z,98744.25
2023-02-02T11:56:40.328Z,98735.88
2023-02-02T11:59:37.261Z,98744.16
2023-02-02T12:02:29.626Z,98726.56
2023-02-02T12:05:37.558Z,98744.72
2023-02-02T12:08:26.559Z,98747.88
2023-02-02T12:11:38.367Z,98745.81
2023-02-02T12:14:43.857Z,98739.16
2023-02-02T12:17:41.811Z,98740.72
2023-02-02T12:20:42.614Z,98733.16
2023-02-02T12:24:13.048Z,98732.00
2023-02-02T12:27:20.648Z,98741.97
2023-02-02T12:30:36.388Z,98750.19
2023-02-02T12:33:38.944Z,98756.31
2023-02-02T12:36:50.154Z,98762.78
2023-02-02T12:39:58.881Z,98763.50
2023-02-02T12:43:03.959Z,98757.88
2023-02-02T12:46:40.663Z,98762.56
2023-02-02T12:50:04.773Z,98768.13
2023-02-02T12:53:17.908Z,98759.22
2023-02-02T12:56:24.021Z,98762.50
2023-02-02T12:59:32.167Z,98770.16
2023-02-02T13:02:35.987Z,98774.13
2023-02-02T13:05:47.113Z,98773.03
2023-02-02T13:08:44.671Z,98777.47
2023-02-02T13:11:45.879Z,98769.56
2023-02-02T13:14:38.514Z,98771.84
2023-02-02T13:17:34.932Z,98775.34
2023-02-02T13:20:35.382Z,98777.00
2023-02-02T13:23:32.310Z,98791.19
2023-02-02T13:26:33.031Z,98784.00
2023-02-02T13:29:44.290Z,98789.28
2023-02-02T13:32:45.195Z,98792.63
2023-02-02T13:35:44.897Z,98797.06
2023-02-02T13:38:42.005Z,98792.38
2023-02-02T13:41:36.691Z,98792.13
2023-02-02T13:44:33.355Z,98793.56
2023-02-02T13:47:29.027Z,98805.84
2023-02-02T13:50:23.596Z,98796.09
2023-02-02T13:53:44.095Z,98810.03
2023-02-02T13:56:51.148Z,98818.19
2023-02-02T14:00:03.348Z,98817.09
2023-02-02T14:02:55.479Z,98835.38
2023-02-02T14:05:46.145Z,98840.66
2023-02-02T14:08:40.781Z,98838.00
2023-02-02T14:11:34.001Z,98840.19
2023-02-02T14:14:35.338Z,98856.97
2023-02-02T14:17:55.694Z,98856.16
2023-02-02T14:20:48.667Z,98874.75
2023-02-02T14:23:54.200Z,98888.28
2023-02-02T14:26:48.553Z,98899.66
2023-02-02T14:29:56.078Z,98892.53
2023-02-02T14:32:45.935Z,98900.66
2023-02-02T14:36:01.966Z,98900.53
2023-02-02T14:39:16.791Z,98912.00
2023-02-02T14:42:51.017Z,98923.19
2023-02-02T14:45:39.495Z,98923.78
2023-02-02T14:48:31.110Z,98930.78
2023-02-02T14:51:28.245Z,98930.25
2023-02-02T14:54:26.437Z,98932.81
2023-02-02T14:57:34.920Z,98937.97
2023-02-02T15:00:30.397Z,98940.91
2023-02-02T15:03:49.268Z,98943.25
2023-02-02T15:06:42.242Z,98963.59
2023-02-02T15:09:39.343Z,98949.16
2023-02-02T15:12:35.265Z,98965.59
2023-02-02T15:15:27.869Z,98970.31
2023-02-02T15:18:25.099Z,98967.91
2023-02-02T15:21:22.094Z,98970.00
2023-02-02T15:24:23.453Z,98990.63
2023-02-02T15:27:20.430Z,98985.16
2023-02-02T15:30:16.892Z,98995.25
2023-02-02T15:33:14.246Z,98997.16
2023-02-02T15:36:10.659Z,99002.53
2023-02-02T15:39:04.117Z,99015.78
2023-02-02T15:42:11.724Z,99013.34
2023-02-02T15:44:59.386Z,99021.56
2023-02-02T15:47:47.468Z,99021.84
2023-02-02T15:50:35.047Z,99021.00
2023-02-02T15:53:26.834Z,99027.22
2023-02-02T15:56:30.449Z,99031.81
2023-02-02T15:59:24.187Z,99039.00
2023-02-02T16:02:28.874Z,99044.34
2023-02-02T16:05:42.866Z,99056.09
2023-02-02T16:08:34.239Z,99061.47
2023-02-02T16:11:24.765Z,99056.53
2023-02-02T16:14:18.349Z,99065.44
2023-02-02T16:17:20.713Z,99070.88
2023-02-02T16:20:17.761Z,99067.63
2023-02-02T16:23:15.174Z,99079.25
2023-02-02T16:26:06.949Z,99078.44
2023-02-02T16:28:55.040Z,99089.16
2023-02-02T16:31:42.987Z,99087.66
2023-02-02T16:34:48.818Z,99096.66
2023-02-02T16:37:37.747Z,99097.59
2023-02-02T16:40:30.730Z,99107.28
2023-02-02T16:43:29.368Z,99110.09
2023-02-02T16:46:20.795Z,99121.47
2023-02-02T16:49:19.324Z,99125.25
2023-02-02T16:52:17.956Z,99126.28
2023-02-02T16:55:11.546Z,99127.28
2023-02-02T16:58:01.993Z,99135.28
2023-02-02T17:01:14.020Z,99139.72
2023-02-02T17:04:02.971Z,99146.06
2023-02-02T17:06:53.399Z,99145.16
2023-02-02T17:09:45.164Z,99154.06
2023-02-02T17:12:34.775Z,99168.41
2023-02-02T17:15:35.643Z,99171.81
2023-02-02T17:18:23.562Z,99169.28
2023-02-02T17:21:18.489Z,99181.66
2023-02-02T17:24:06.514Z,99178.19
2023-02-02T17:26:55.942Z,99178.09
2023-02-02T17:29:44.007Z,99178.19
2023-02-02T17:32:31.951Z,99171.31
2023-02-02T17:35:23.559Z,99187.19
2023-02-02T17:38:17.465Z,99184.56
2023-02-02T17:41:05.886Z,99204.00
2023-02-02T17:43:55.278Z,99209.34
2023-02-02T17:46:42.808Z,99214.78
2023-02-02T17:49:30.405Z,99213.09
2023-02-02T17:52:21.169Z,99214.97
2023-02-02T17:55:15.659Z,99217.69
2023-02-02T17:58:03.947Z,99217.78
2023-02-02T18:00:58.995Z,99224.91
2023-02-02T18:03:47.846Z,99230.25
2023-02-02T18:06:35.545Z,99230.34
2023-02-02T18:09:23.392Z,99222.47
2023-02-02T18:12:11.590Z,99219.94
2023-02-02T18:14:59.222Z,99220.00
2023-02-02T18:17:48.236Z,99227.91
2023-02-02T18:20:36.301Z,99218.22
2023-02-02T18:23:26.988Z,99227.22
2023-02-02T18:26:18.692Z,99230.72
2023-02-02T18:29:06.509Z,99232.66
2023-02-02T18:31:54.341Z,99239.75
2023-02-02T18:34:43.455Z,99240.63
2023-02-02T18:37:31.251Z,99226.63
2023-02-02T18:40:19.536Z,99229.38
2023-02-02T18:43:07.575Z,99218.84
2023-02-02T18:46:01.410Z,99230.28
2023-02-02T18:48:50.537Z,99227.75
2023-02-02T18:51:40.123Z,99234.03
2023-02-02T18:54:28.067Z,99242.09
2023-02-02T18:57:16.006Z,99243.69
2023-02-02T19:00:05.424Z,99243.59
2023-02-02T19:02:52.810Z,99247.94
2023-02-02T19:05:58.221Z,99248.84
2023-02-02T19:08:47.747Z,99248.13
2023-02-02T19:11:39.514Z,99252.50
2023-02-02T19:14:34.478Z,99250.75
2023-02-02T19:17:24.969Z,99253.38
2023-02-02T19:20:26.381Z,99254.28
2023-02-02T19:23:17.055Z,99257.84
2023-02-02T19:26:21.777Z,99248.47
2023-02-02T19:29:19.326Z,99249.75
2023-02-02T19:32:15.861Z,99250.75
2023-02-02T19:35:05.526Z,99247.28
2023-02-02T19:38:01.318Z,99251.59
2023-02-02T19:40:49.371Z,99254.22
2023-02-02T19:43:39.954Z,99243.72
2023-02-02T19:46:31.487Z,99246.25
2023-02-02T19:49:28.026Z,99248.88
2023-02-02T19:52:22.820Z,99242.03
2023-02-02T19:55:24.558Z,99252.47
2023-02-02T19:58:19.477Z,99257.81
2023-02-02T20:01:20.707Z,99248.03
2023-02-02T20:04:15.854Z,99258.44
2023-02-02T20:07:14.834Z,99255.00
2023-02-02T20:10:19.670Z,99250.56
2023-02-02T20:13:19.786Z,99248.81
2023-02-02T20:16:19.199Z,99249.75
2023-02-02T20:19:15.398Z,99247.78
2023-02-02T20:22:04.113Z,99243.38
2023-02-02T20:24:51.775Z,99245.91
2023-02-02T20:27:39.496Z,99246.09
2023-02-02T20:30:31.053Z,99253.72
2023-02-02T20:33:27.399Z,99262.34
2023-02-02T20:36:35.464Z,99253.53
2023-02-02T20:39:37.420Z,99246.41
2023-02-02T20:42:25.946Z,99252.16
2023-02-02T20:45:14.273Z,99247.66
2023-02-02T20:48:03.480Z,99247.56
2023-02-02T20:50:52.718Z,99263.13
2023-02-02T20:53:40.999Z,99248.88
2023-02-02T20:56:28.561Z,99251.59
2023-02-02T20:59:16.425Z,99249.75
2023-02-02T21:02:05.365Z,99244.41
2023-02-02T21:04:53.905Z,99259.81
2023-02-02T21:07:43.126Z,99267.06
2023-02-02T21:10:31.553Z,99264.25
2023-02-02T21:13:19.282Z,99265.84
2023-02-02T21:16:07.950Z,99268.13
2023-02-02T21:18:57.146Z,99264.19
2023-02-02T21:21:44.599Z,99256.19
2023-02-02T21:24:33.416Z,99268.13
2023-02-02T21:27:20.974Z,99269.34
2023-02-02T21:30:13.155Z,99261.53
2023-02-02T21:33:00.624Z,99265.50
2023-02-02T21:35:48.046Z,99264.38
2023-02-02T21:38:35.401Z,99251.03
2023-02-02T21:41:25.474Z,99253.66
2023-02-02T21:44:15.902Z,99261.28
2023-02-02T21:47:03.715Z,99255.81
2023-02-02T21:49:51.436Z,99259.00
2023-02-02T21:52:39.011Z,99254.03
2023-02-02T21:55:36.676Z,99251.28
2023-02-02T21:58:32.655Z,99259.09
2023-02-02T22:01:27.081Z,99252.81
2023-02-02T22:04:22.562Z,99248.38
2023-02-02T22:07:16.116Z,99250.00
2023-02-02T22:10:26.042Z,99252.63
2023-02-02T22:13:20.584Z,99257.91
2023-02-02T22:16:20.159Z,99268.00
2023-02-02T22:19:36.085Z,99261.72
2023-02-02T22:22:27.321Z,99262.66
2023-02-02T22:25:33.381Z,99246.75
2023-02-02T22:28:25.987Z,99241.59
2023-02-02T22:31:15.048Z,99246.75
2023-02-02T22:34:02.425Z,99246.56
2023-02-02T22:36:50.274Z,99244.88
2023-02-02T22:39:42.718Z,99235.94
2023-02-02T22:42:30.646Z,99223.63
2023-02-02T22:45:18.640Z,99232.28
2023-02-02T22:48:07.657Z,99230.59
2023-02-02T22:50:55.015Z,99235.66
2023-02-02T22:53:42.418Z,99237.16
2023-02-02T22:56:29.794Z,99249.69
2023-02-02T22:59:17.062Z,99241.78
2023-02-02T23:02:04.802Z,99239.06
2023-02-02T23:04:53.987Z,99250.88
2023-02-02T23:07:44.053Z,99245.81
2023-02-02T23:10:35.336Z,99245.91
2023-02-02T23:13:22.787Z,99258.03
2023-02-02T23:16:11.003Z,99263.09
2023-02-02T23:18:58.957Z,99256.16
2023-02-02T23:21:47.723Z,99263.84
2023-02-02T23:24:35.012Z,99260.28
2023-02-02T23:27:22.395Z,99259.53
2023-02-02T23:30:13.465Z,99263.00
2023-02-02T23:33:00.851Z,99259.34
2023-02-02T23:35:48.336Z,99251.44
2023-02-02T23:38:37.113Z,99255.56
2023-02-02T23:41:24.723Z,99257.63
2023-02-02T23:44:12.178Z,99263.47
2023-02-02T23:47:00.705Z,99258.31
2023-02-02T23:49:48.608Z,99260.84
2023-02-02T23:52:37.924Z,99262.72
2023-02-02T23:55:27.160Z,99253.88
2023-02-02T23:58:15.574Z,99259.88
